メインページ
METAR-TAF:

METAR-TAF

空港 :

プリンセス・ジュリアナ国際空港

シント・マールテン, オランダ領アンティル

緯度: 18-03N, 経度: 063-07W, 海抜: 4m

現時点の気象観測

当レポートは1時間51分前の08:00(UTC)に作成
の風 12kt、北東から東/南東の間で変化する
気温 26°C
湿度 74%
気圧 1017 hPa
視程10km以上
高度2000ftの雲は散在している

METAR: TNCM 200800Z 08012KT 050V120 9999 SCT020 26/21 Q1017 A3003

時間: 05:51 (09:51 UTC)

予報

当レポートは4時間16分前の05:35(UTC)に作成
予報は20日の 06時(UTC)から 21日の 06時(UTC)まで有効
の風 10kt
視程: 10km
高度1800ftの雲は散在している
小雨
20日の 1300時(UTC)から
の風 15kt
視程: 10km
高度2000ftの雲は散在している
近辺でにわか雨
20日の 2300時(UTC)から
の風 10kt
視程: 10km
高度1800ftの雲は散在している

TAF: TNCM 200535Z 2006/2106 09010KT P6SM -RA SCT018 FM201300 09015KT P6SM VCSH SCT020 FM202300 09010KT P6SM SCT018

4,000以上の空港の気象観測と天気予報(METAR報とTAF報)

利用可能な観測所は地図上に黄色い丸と赤い丸で示す。

丸の上にカーソルを重ねると観測所名を参照できる。

次にクリックすると気象観測と天気予報を参照できる。

マップの切り替え:黒色「×」印の緑ボタンをクリックして拡大、「-」印の緑ボタンをクリックして縮小、緑色の三角印をクリックして隣りの地図に切り替え


METAR-TAF: